Startpagina
METAR-TAF:

METAR-TAF

Vliegvelden :

Dease Lake, Brits Columbia, Canada

breedte: 58-25-20N, lengte: 130-01-53W, hoogte: 803 m

Actueel weer

Dit bericht is 28 minuten geleden gemaakt, om 19:00 UTC
Wind 4 kt uit variabele richting
Temperatuur -2°C
Vochtigheid 39%
Druk 1028 hPa
Zicht: 14.5 km
Weinig wolken op 5500 ft

METAR: CYDL 101900Z AUTO VRB04KT 9SM FEW055 M02/M14 A3035 RMK SLP310

Tijdstip: 12:28 (19:28 UTC)

Verwachting

Dit bericht is 1 uur en het 50 minuten geleden gemaakt, om 17:38 UTC
Verwachting geldig van 10 om 18 UTC tot 10 om 24 UTC
Wind 5 kt uit het noordoosten
Zicht: 10 km
Weinig wolken op 5000 ft

TAF: CYDL 101738Z 1018/1024 04005KT P6SM FEW050 RMK FCST BASED ON AUTO OBS. NXT FCST WILL BE ISSUED AT 111245Z

Waarnemingen en weersverwachtingen van meer dan 4000 vliegvelden (METAR en TAF).

De beschikbare stations zijn de gele en rode punten op de kaart.

Ga met uw muis naar het station om de naam te zien.

Klik dan om waarnemingen en weersverwachtingen te zien.

kaart wijzigen: klik op de groene knoppen met een zwart kruis om in te zoomen, op de groene knop met een streepje om uit te zoomen of op de groene pijlen voor aangrenzende kaarten.


METAR-TAF: